createdAt,value
2018-11-28T00:01:22.298Z,97465.44
2018-11-28T00:03:52.161Z,97474.82
2018-11-28T00:06:22.059Z,97480.59
2018-11-28T00:08:51.930Z,97479.34
2018-11-28T00:11:21.926Z,97478.09
2018-11-28T00:13:51.926Z,97478.39
2018-11-28T00:16:22.421Z,97479.64
2018-11-28T00:18:52.790Z,97481.39
2018-11-28T00:21:22.950Z,97482.45
2018-11-28T00:23:52.747Z,97476.13
2018-11-28T00:26:22.563Z,97479.50
2018-11-28T00:28:52.627Z,97477.80
2018-11-28T00:31:22.541Z,97481.20
2018-11-28T00:33:52.347Z,97478.94
2018-11-28T00:36:22.149Z,97481.61
2018-11-28T00:38:52.064Z,97489.83
2018-11-28T00:41:21.998Z,97494.84
2018-11-28T00:43:51.826Z,97490.29
2018-11-28T00:46:21.625Z,97491.39
2018-11-28T00:48:51.719Z,97495.59
2018-11-28T00:51:21.650Z,97499.84
2018-11-28T00:53:51.552Z,97496.39
2018-11-28T00:56:21.406Z,97485.91
2018-11-28T00:58:51.396Z,97496.22
2018-11-28T01:01:21.342Z,97502.32
2018-11-28T01:03:51.269Z,97494.05
2018-11-28T01:06:21.246Z,97498.10
2018-11-28T01:08:51.084Z,97496.09
2018-11-28T01:11:21.076Z,97491.21
2018-11-28T01:13:51.073Z,97497.01
2018-11-28T01:16:21.033Z,97497.01
2018-11-28T01:18:52.118Z,97505.31
2018-11-28T01:21:22.149Z,97511.88
2018-11-28T01:23:52.051Z,97512.63
2018-11-28T01:26:22.151Z,97518.43
2018-11-28T01:28:52.110Z,97522.64
2018-11-28T01:31:22.235Z,97520.31
2018-11-28T01:33:52.376Z,97518.58
2018-11-28T01:36:22.374Z,97514.83
2018-11-28T01:38:52.085Z,97517.63
2018-11-28T01:41:21.841Z,97524.98
2018-11-28T01:43:51.670Z,97524.42
2018-11-28T01:46:21.600Z,97524.19
2018-11-28T01:48:51.444Z,97518.43
2018-11-28T01:51:21.415Z,97518.43
2018-11-28T01:53:51.340Z,97516.87
2018-11-28T01:56:21.171Z,97516.87
2018-11-28T01:58:51.186Z,97521.88
2018-11-28T02:01:21.055Z,97520.31
2018-11-28T02:03:50.861Z,97514.37
2018-11-28T02:06:20.805Z,97510.13
2018-11-28T02:08:50.657Z,97513.42
2018-11-28T02:11:20.947Z,97512.94
2018-11-28T02:13:50.915Z,97512.48
2018-11-28T02:16:20.633Z,97514.53
2018-11-28T02:18:50.499Z,97513.09
2018-11-28T02:21:20.316Z,97514.34
2018-11-28T02:23:50.229Z,97515.78
2018-11-28T02:26:20.320Z,97521.55
2018-11-28T02:28:50.204Z,97522.95
2018-11-28T02:31:20.001Z,97533.56
2018-11-28T02:33:49.740Z,97535.11
2018-11-28T02:36:19.682Z,97536.06
2018-11-28T02:38:49.511Z,97542.01
2018-11-28T02:41:19.319Z,97544.66
2018-11-28T02:43:49.219Z,97550.61
2018-11-28T02:46:28.191Z,97549.84
2018-11-28T02:48:57.951Z,97558.41
2018-11-28T02:51:27.795Z,97554.20
2018-11-28T02:53:57.769Z,97552.95
2018-11-28T02:56:27.630Z,97556.63
2018-11-28T02:58:57.645Z,97553.56
2018-11-28T03:01:27.635Z,97555.19
2018-11-28T03:03:57.530Z,97556.67
2018-11-28T03:06:27.443Z,97560.42
2018-11-28T03:08:57.407Z,97559.36
2018-11-28T03:11:27.223Z,97552.88
2018-11-28T03:13:57.142Z,97560.13
2018-11-28T03:16:26.969Z,97562.47
2018-11-28T03:18:56.786Z,97563.34
2018-11-28T03:21:26.592Z,97565.12
2018-11-28T03:23:56.416Z,97572.16
2018-11-28T03:26:26.329Z,97570.27
2018-11-28T03:28:56.207Z,97568.86
2018-11-28T03:31:26.048Z,97572.77
2018-11-28T03:33:55.893Z,97581.22
2018-11-28T03:36:25.893Z,97577.47
2018-11-28T03:38:55.770Z,97578.27
2018-11-28T03:41:25.689Z,97572.13
2018-11-28T03:43:56.452Z,97574.93
2018-11-28T03:46:26.354Z,97576.18
2018-11-28T03:48:56.259Z,97581.97
2018-11-28T03:51:26.170Z,97580.80
2018-11-28T03:53:57.316Z,97584.73
2018-11-28T03:56:27.073Z,97584.81
2018-11-28T03:58:56.925Z,97591.06
2018-11-28T04:01:26.878Z,97591.97
2018-11-28T04:03:56.793Z,97596.89
2018-11-28T04:06:26.545Z,97599.93
2018-11-28T04:08:56.505Z,97605.58
2018-11-28T04:11:26.386Z,97595.42
2018-11-28T04:13:56.276Z,97592.77
2018-11-28T04:16:26.115Z,97593.36
2018-11-28T04:18:57.353Z,97588.02
2018-11-28T04:21:27.209Z,97589.25
2018-11-28T04:23:57.185Z,97586.56
2018-11-28T04:26:26.967Z,97590.64
2018-11-28T04:28:57.530Z,97591.78
2018-11-28T04:31:27.429Z,97588.66
2018-11-28T04:33:57.270Z,97594.34
2018-11-28T04:36:27.170Z,97601.05
2018-11-28T04:38:57.052Z,97597.00
2018-11-28T04:41:26.889Z,97600.29
2018-11-28T04:43:56.737Z,97603.66
2018-11-28T04:46:26.732Z,97604.50
2018-11-28T04:48:56.661Z,97606.53
2018-11-28T04:51:26.574Z,97605.28
2018-11-28T04:53:56.467Z,97598.55
2018-11-28T04:56:26.423Z,97607.78
2018-11-28T04:58:56.445Z,97610.88
2018-11-28T05:01:26.326Z,97605.56
2018-11-28T05:03:56.118Z,97611.23
2018-11-28T05:07:30.114Z,97615.55
2018-11-28T05:10:00.236Z,97615.80
2018-11-28T05:12:30.160Z,97609.92
2018-11-28T05:14:59.999Z,97617.42
2018-11-28T05:17:29.992Z,97616.02
2018-11-28T05:19:59.930Z,97610.86
2018-11-28T05:22:29.878Z,97612.83
2018-11-28T05:24:59.902Z,97615.63
2018-11-28T05:27:29.855Z,97615.46
2018-11-28T05:29:59.754Z,97617.01
2018-11-28T05:32:29.710Z,97625.45
2018-11-28T05:34:59.848Z,97621.92
2018-11-28T05:37:30.002Z,97626.80
2018-11-28T05:40:14.286Z,97624.14
2018-11-28T05:42:44.101Z,97626.69
2018-11-28T05:45:13.949Z,97618.61
2018-11-28T05:47:43.991Z,97625.81
2018-11-28T05:50:18.652Z,97628.77
2018-11-28T05:52:48.538Z,97626.89
2018-11-28T05:55:19.856Z,97632.84
2018-11-28T05:57:49.644Z,97635.50
2018-11-28T06:00:26.504Z,97642.83
2018-11-28T06:02:56.400Z,97639.67
2018-11-28T06:05:26.428Z,97633.23
2018-11-28T06:07:56.363Z,97647.45
2018-11-28T06:10:26.266Z,97638.84
2018-11-28T06:12:56.225Z,97645.20
2018-11-28T06:15:26.135Z,97646.92
2018-11-28T06:17:56.052Z,97646.13
2018-11-28T06:20:26.118Z,97645.37
2018-11-28T06:22:56.058Z,97638.64
2018-11-28T06:25:25.894Z,97650.20
2018-11-28T06:27:55.655Z,97641.84
2018-11-28T06:30:25.721Z,97641.14
2018-11-28T06:32:55.580Z,97650.66
2018-11-28T06:35:25.680Z,97659.56
2018-11-28T06:37:55.839Z,97655.95
2018-11-28T06:40:25.783Z,97654.53
2018-11-28T06:42:55.749Z,97663.93
2018-11-28T06:45:26.513Z,97663.81
2018-11-28T06:47:56.943Z,97668.02
2018-11-28T06:50:27.132Z,97667.55
2018-11-28T06:52:57.949Z,97668.80
2018-11-28T06:55:28.105Z,97670.09
2018-11-28T06:57:59.150Z,97678.42
2018-11-28T07:00:29.570Z,97683.13
2018-11-28T07:02:59.518Z,97683.13
2018-11-28T07:05:29.472Z,97681.21
2018-11-28T07:08:00.058Z,97682.78
2018-11-28T07:10:30.190Z,97683.70
2018-11-28T07:13:30.921Z,97688.12
2018-11-28T07:16:00.900Z,97689.07
2018-11-28T07:18:41.570Z,97691.73
2018-11-28T07:21:11.550Z,97695.98
2018-11-28T07:23:42.224Z,97693.56
2018-11-28T07:26:12.444Z,97699.89
2018-11-28T07:28:42.636Z,97697.69
2018-11-28T07:31:12.672Z,97701.14
2018-11-28T07:33:42.620Z,97705.55
2018-11-28T07:36:12.853Z,97700.13
2018-11-28T07:38:44.058Z,97704.34
2018-11-28T07:41:14.149Z,97712.80
2018-11-28T07:43:44.334Z,97713.75
2018-11-28T07:46:14.462Z,97715.88
2018-11-28T07:48:44.596Z,97715.13
2018-11-28T07:51:14.530Z,97715.13
2018-11-28T07:53:45.352Z,97712.13
2018-11-28T07:56:19.006Z,97713.38
2018-11-28T07:58:49.350Z,97712.80
2018-11-28T08:01:19.391Z,97717.20
2018-11-28T08:03:49.680Z,97719.23
2018-11-28T08:06:19.527Z,97721.82
2018-11-28T08:08:49.718Z,97721.53
2018-11-28T08:11:19.776Z,97735.69
2018-11-28T08:13:49.768Z,97730.58
2018-11-28T08:16:19.722Z,97735.57
2018-11-28T08:18:49.853Z,97734.90
2018-11-28T08:21:19.738Z,97736.31
2018-11-28T08:23:50.371Z,97737.06
2018-11-28T08:26:20.487Z,97734.27
2018-11-28T08:28:50.712Z,97741.68
2018-11-28T08:31:20.925Z,97748.39
2018-11-28T08:33:51.011Z,97739.02
2018-11-28T08:36:21.184Z,97744.27
2018-11-28T08:38:51.437Z,97732.44
2018-11-28T08:41:21.613Z,97735.80
2018-11-28T08:43:51.706Z,97735.09
2018-11-28T08:46:22.090Z,97736.63
2018-11-28T08:48:52.379Z,97730.59
2018-11-28T08:51:22.327Z,97730.97
2018-11-28T08:53:52.410Z,97732.47
2018-11-28T08:59:43.497Z,97741.28
2018-11-28T09:02:12.794Z,97747.04
2018-11-28T09:04:42.151Z,97751.49
2018-11-28T09:07:11.488Z,97750.33
2018-11-28T09:09:40.880Z,97758.95
2018-11-28T09:12:10.675Z,97762.99
2018-11-28T09:14:40.150Z,97762.70
2018-11-28T09:17:15.055Z,97767.31
2018-11-28T09:19:38.931Z,97769.73
2018-11-28T09:22:09.817Z,97772.41
2018-11-28T09:24:39.147Z,97767.41
2018-11-28T09:27:08.626Z,97766.61
2018-11-28T09:29:38.027Z,97766.52
2018-11-28T09:32:07.515Z,97770.52
2018-11-28T09:34:36.824Z,97772.50
2018-11-28T09:37:06.324Z,97775.80
2018-11-28T09:39:35.770Z,97772.50
2018-11-28T09:42:05.613Z,97768.45
2018-11-28T09:44:34.908Z,97767.66
2018-11-28T09:47:04.261Z,97770.16
2018-11-28T09:49:33.555Z,97769.57
2018-11-28T09:52:02.909Z,97777.53
2018-11-28T09:54:32.395Z,97780.45
2018-11-28T09:57:01.724Z,97786.48
2018-11-28T09:59:31.058Z,97785.37
2018-11-28T10:02:00.465Z,97774.55
2018-11-28T10:04:29.945Z,97776.63
2018-11-28T10:06:59.254Z,97772.50
2018-11-28T10:09:28.577Z,97767.07
2018-11-28T10:11:57.900Z,97770.44
2018-11-28T10:14:27.148Z,97771.28
2018-11-28T10:16:56.896Z,97762.06
2018-11-28T10:19:27.386Z,97767.07
2018-11-28T10:21:56.685Z,97761.50
2018-11-28T10:24:25.986Z,97767.58
2018-11-28T10:26:55.465Z,97768.29
2018-11-28T10:29:24.675Z,97771.25
2018-11-28T10:31:53.846Z,97769.41
2018-11-28T10:34:23.088Z,97766.28
2018-11-28T10:37:06.823Z,97760.98
2018-11-28T10:39:36.173Z,97761.94
2018-11-28T10:42:06.098Z,97760.69
2018-11-28T10:44:35.430Z,97756.11
2018-11-28T10:47:04.800Z,97760.00
2018-11-28T10:49:34.128Z,97759.05
2018-11-28T10:52:03.381Z,97752.14
2018-11-28T10:54:32.643Z,97751.38
2018-11-28T10:57:01.944Z,97752.06
2018-11-28T10:59:31.248Z,97754.47
2018-11-28T11:02:05.766Z,97748.36
2018-11-28T11:04:40.388Z,97747.41
2018-11-28T11:07:14.773Z,97753.19
2018-11-28T11:10:51.119Z,97754.90
2018-11-28T11:13:25.862Z,97760.33
2018-11-28T11:15:59.922Z,97756.28
2018-11-28T11:18:29.703Z,97750.27
2018-11-28T11:20:58.943Z,97756.98
2018-11-28T11:23:28.185Z,97753.36
2018-11-28T11:25:57.497Z,97758.78
2018-11-28T11:28:26.747Z,97760.05
2018-11-28T11:30:55.994Z,97751.70
2018-11-28T11:33:25.245Z,97757.95
2018-11-28T11:35:54.546Z,97762.03
2018-11-28T11:38:23.948Z,97755.69
2018-11-28T11:40:53.658Z,97758.19
2018-11-28T11:43:22.961Z,97748.57
2018-11-28T11:45:52.245Z,97750.06
2018-11-28T11:48:21.617Z,97745.86
2018-11-28T11:50:50.961Z,97752.53
2018-11-28T11:53:20.726Z,97762.46
2018-11-28T11:55:50.970Z,97763.41
2018-11-28T11:58:20.870Z,97757.83
2018-11-28T12:00:51.308Z,97759.38
2018-11-28T12:03:21.042Z,97754.08
2018-11-28T12:05:56.724Z,97752.04
2018-11-28T12:08:27.349Z,97759.38
2018-11-28T12:10:56.758Z,97756.70
2018-11-28T12:13:26.104Z,97755.75
2018-11-28T12:15:55.533Z,97757.88
2018-11-28T12:18:24.865Z,97755.09
2018-11-28T12:20:55.559Z,97753.72
2018-11-28T12:23:24.838Z,97749.31
2018-11-28T12:25:54.240Z,97743.97
2018-11-28T12:28:23.537Z,97752.14
2018-11-28T12:30:52.830Z,97754.97
2018-11-28T12:33:22.135Z,97763.82
2018-11-28T12:35:51.426Z,97758.53
2018-11-28T12:38:21.229Z,97762.48
2018-11-28T12:40:51.472Z,97761.53
2018-11-28T12:43:21.285Z,97757.98
2018-11-28T12:45:51.668Z,97755.23
2018-11-28T12:48:21.307Z,97756.94
2018-11-28T12:50:51.314Z,97760.34
2018-11-28T12:53:21.373Z,97761.88
2018-11-28T12:55:51.398Z,97759.58
2018-11-28T12:58:21.739Z,97755.25
2018-11-28T13:00:51.388Z,97748.94
2018-11-28T13:03:21.408Z,97755.26
2018-11-28T13:05:51.280Z,97756.62
2018-11-28T13:08:21.442Z,97749.91
2018-11-28T13:10:51.423Z,97754.22
2018-11-28T13:13:21.509Z,97758.16
2018-11-28T13:15:51.553Z,97753.95
2018-11-28T13:18:21.497Z,97756.27
2018-11-28T13:20:51.387Z,97755.30
2018-11-28T13:23:21.568Z,97754.80
2018-11-28T13:25:51.561Z,97758.37
2018-11-28T13:28:21.691Z,97762.22
2018-11-28T13:30:51.646Z,97761.81
2018-11-28T13:33:21.911Z,97763.64
2018-11-28T13:35:51.946Z,97759.53
2018-11-28T13:40:51.849Z,97766.33
2018-11-28T13:43:21.957Z,97764.41
2018-11-28T13:45:51.898Z,97757.42
2018-11-28T13:48:22.076Z,97755.80
2018-11-28T13:50:51.998Z,97761.53
2018-11-28T13:53:22.183Z,97754.93
2018-11-28T13:58:28.793Z,97747.45
2018-11-28T14:00:58.997Z,97745.92
2018-11-28T14:03:29.217Z,97737.66
2018-11-28T14:05:59.445Z,97740.55
2018-11-28T14:08:29.689Z,97739.02
2018-11-28T14:10:59.803Z,97737.66
2018-11-28T14:13:29.687Z,97738.02
2018-11-28T14:15:59.862Z,97744.75
2018-11-28T14:18:30.326Z,97747.99
2018-11-28T14:21:00.361Z,97743.70
2018-11-28T14:23:30.422Z,97748.78
2018-11-28T14:26:00.342Z,97752.98
2018-11-28T14:28:30.455Z,97747.24
2018-11-28T14:31:00.221Z,97753.95
2018-11-28T14:36:50.002Z,97768.45
2018-11-28T14:39:19.291Z,97770.16
2018-11-28T14:41:48.642Z,97771.50
2018-11-28T14:44:17.965Z,97778.72
2018-11-28T14:46:47.345Z,97777.93
2018-11-28T14:49:16.609Z,97779.39
2018-11-28T14:51:45.917Z,97769.70
2018-11-28T14:54:15.198Z,97773.81
2018-11-28T14:56:44.527Z,97779.50
2018-11-28T14:59:13.841Z,97777.84
2018-11-28T15:01:43.169Z,97772.75
2018-11-28T15:04:12.571Z,97774.49
2018-11-28T15:06:56.965Z,97769.13
2018-11-28T15:09:32.879Z,97773.52
2018-11-28T15:12:02.624Z,97775.26
2018-11-28T15:14:31.812Z,97771.02
2018-11-28T15:17:01.242Z,97769.48
2018-11-28T15:19:30.758Z,97767.86
2018-11-28T15:22:00.057Z,97771.02
2018-11-28T15:24:29.306Z,97773.62
2018-11-28T15:26:58.555Z,97768.16
2018-11-28T15:29:27.767Z,97772.38
2018-11-28T15:31:57.088Z,97770.66
2018-11-28T15:34:26.353Z,97770.45
2018-11-28T15:36:55.637Z,97768.73
2018-11-28T15:39:24.904Z,97763.75
2018-11-28T15:41:54.201Z,97761.16
2018-11-28T15:44:23.417Z,97763.46
2018-11-28T15:46:53.753Z,97770.57
2018-11-28T15:49:23.306Z,97759.54
2018-11-28T15:51:53.312Z,97759.33
2018-11-28T15:54:23.263Z,97759.54
2018-11-28T15:56:53.390Z,97762.97
2018-11-28T15:59:23.408Z,97763.75
2018-11-28T16:01:53.611Z,97769.80
2018-11-28T16:04:23.474Z,97773.45
2018-11-28T16:06:53.470Z,97774.86
2018-11-28T16:09:28.758Z,97773.15
2018-11-28T16:11:58.150Z,97787.43
2018-11-28T16:14:27.469Z,97790.90
2018-11-28T16:16:56.981Z,97799.63
2018-11-28T16:19:26.290Z,97790.02
2018-11-28T16:21:55.591Z,97795.58
2018-11-28T16:24:24.814Z,97803.56
2018-11-28T16:26:54.188Z,97807.48
2018-11-28T16:29:23.696Z,97805.77
2018-11-28T16:31:53.710Z,97805.95
2018-11-28T16:34:23.858Z,97806.83
2018-11-28T16:36:54.071Z,97810.54
2018-11-28T16:39:23.880Z,97811.88
2018-11-28T16:41:54.183Z,97817.05
2018-11-28T16:44:24.370Z,97817.83
2018-11-28T16:46:54.035Z,97821.11
2018-11-28T16:49:24.693Z,97816.30
2018-11-28T16:51:54.288Z,97813.81
2018-11-28T16:54:24.463Z,97811.78
2018-11-28T16:56:54.177Z,97807.48
2018-11-28T16:59:24.320Z,97808.64
2018-11-28T17:01:53.980Z,97813.06
2018-11-28T17:04:24.121Z,97809.70
2018-11-28T17:06:54.053Z,97806.33
2018-11-28T17:09:24.172Z,97802.78
2018-11-28T17:11:54.138Z,97805.19
2018-11-28T17:14:24.859Z,97811.97
2018-11-28T17:16:54.208Z,97808.05
2018-11-28T17:19:24.224Z,97805.45
2018-11-28T17:21:54.461Z,97814.56
2018-11-28T17:24:24.209Z,97822.05
2018-11-28T17:26:54.407Z,97819.86
2018-11-28T17:29:24.294Z,97825.12
2018-11-28T17:31:54.211Z,97820.42
2018-11-28T17:34:23.911Z,97827.63
2018-11-28T17:36:53.293Z,97821.11
2018-11-28T17:39:22.681Z,97827.13
2018-11-28T17:41:51.977Z,97822.92
2018-11-28T17:44:21.216Z,97828.46
2018-11-28T17:46:50.538Z,97822.05
2018-11-28T17:49:19.842Z,97819.77
2018-11-28T17:51:49.273Z,97813.03
2018-11-28T17:54:18.635Z,97815.53
2018-11-28T17:56:48.321Z,97818.23
2018-11-28T17:59:17.842Z,97808.27
2018-11-28T18:01:47.216Z,97811.81
2018-11-28T18:04:16.684Z,97805.95
2018-11-28T18:06:46.008Z,97811.13
2018-11-28T18:09:15.432Z,97805.77
2018-11-28T18:11:44.762Z,97803.56
2018-11-28T18:14:14.211Z,97805.77
2018-11-28T18:16:45.580Z,97798.29
2018-11-28T18:19:14.862Z,97800.00
2018-11-28T18:21:44.302Z,97799.25
2018-11-28T18:24:13.635Z,97798.66
2018-11-28T18:26:43.436Z,97795.41
2018-11-28T18:29:12.759Z,97786.97
2018-11-28T18:31:42.264Z,97796.07
2018-11-28T18:34:11.651Z,97788.50
2018-11-28T18:36:40.956Z,97793.30
2018-11-28T18:39:10.318Z,97788.31
2018-11-28T18:41:39.593Z,97787.34
2018-11-28T18:44:08.860Z,97795.39
2018-11-28T18:46:38.267Z,97797.70
2018-11-28T18:49:07.554Z,97793.46
2018-11-28T18:51:36.926Z,97798.35
2018-11-28T18:54:07.038Z,97793.46
2018-11-28T18:56:36.344Z,97794.43
2018-11-28T18:59:05.644Z,97798.64
2018-11-28T19:01:34.998Z,97799.98
2018-11-28T19:04:04.581Z,97803.22
2018-11-28T19:06:34.443Z,97807.64
2018-11-28T19:09:04.958Z,97806.02
2018-11-28T19:11:34.352Z,97802.06
2018-11-28T19:14:03.823Z,97799.02
2018-11-28T19:16:37.744Z,97796.52
2018-11-28T19:19:02.557Z,97798.23
2018-11-28T19:21:31.958Z,97804.38
2018-11-28T19:24:01.455Z,97813.22
2018-11-28T19:26:30.748Z,97809.20
2018-11-28T19:29:00.502Z,97814.66
2018-11-28T19:31:30.600Z,97808.33
2018-11-28T19:34:00.425Z,97806.12
2018-11-28T19:36:30.366Z,97808.61
2018-11-28T19:38:59.787Z,97806.86
2018-11-28T19:41:29.254Z,97806.30
2018-11-28T19:43:58.667Z,97802.84
2018-11-28T19:46:28.142Z,97805.34
2018-11-28T19:48:57.675Z,97805.84
2018-11-28T19:51:27.519Z,97806.21
2018-11-28T19:53:56.925Z,97801.88
2018-11-28T19:56:26.264Z,97812.63
2018-11-28T19:58:56.317Z,97797.20
2018-11-28T20:01:26.304Z,97796.80
2018-11-28T20:03:56.371Z,97791.16
2018-11-28T20:06:28.751Z,97790.75
2018-11-28T20:08:58.180Z,97793.71
2018-11-28T20:11:27.689Z,97789.19
2018-11-28T20:13:56.934Z,97793.24
2018-11-28T20:16:26.391Z,97792.27
2018-11-28T20:18:56.510Z,97797.73
2018-11-28T20:21:26.507Z,97791.69
2018-11-28T20:23:56.728Z,97783.46
2018-11-28T20:26:26.621Z,97778.57
2018-11-28T20:28:56.721Z,97777.51
2018-11-28T20:31:26.508Z,97778.88
2018-11-28T20:33:56.721Z,97780.03
2018-11-28T20:36:26.837Z,97769.28
2018-11-28T20:38:56.863Z,97764.58
2018-11-28T20:41:26.895Z,97770.44
2018-11-28T20:43:56.994Z,97773.48
2018-11-28T20:46:27.023Z,97774.83
2018-11-28T20:48:57.451Z,97777.23
2018-11-28T20:51:27.750Z,97780.00
2018-11-28T20:53:57.339Z,97772.34
2018-11-28T20:56:27.389Z,97781.34
2018-11-28T20:58:58.068Z,97781.53
2018-11-28T21:01:27.874Z,97776.55
2018-11-28T21:03:57.266Z,97788.45
2018-11-28T21:06:27.253Z,97786.14
2018-11-28T21:08:57.207Z,97779.91
2018-11-28T21:11:27.844Z,97776.55
2018-11-28T21:13:57.229Z,97774.83
2018-11-28T21:16:27.270Z,97775.02
2018-11-28T21:18:57.698Z,97775.02
2018-11-28T21:21:27.717Z,97787.66
2018-11-28T21:23:57.407Z,97802.06
2018-11-28T21:26:27.445Z,97807.92
2018-11-28T21:28:57.930Z,97791.81
2018-11-28T21:31:27.785Z,97795.55
2018-11-28T21:33:57.755Z,97801.00
2018-11-28T21:36:28.222Z,97807.33
2018-11-28T21:38:57.752Z,97808.80
2018-11-28T21:41:27.987Z,97808.20
2018-11-28T21:43:57.906Z,97804.00
2018-11-28T21:46:27.769Z,97809.73
2018-11-28T21:48:58.241Z,97810.91
2018-11-28T21:51:27.860Z,97819.73
2018-11-28T21:53:59.038Z,97814.00
2018-11-28T21:56:28.843Z,97808.80
2018-11-28T21:58:58.885Z,97811.01
2018-11-28T22:01:28.457Z,97818.58
2018-11-28T22:03:57.721Z,97816.09
2018-11-28T22:06:27.673Z,97817.80
2018-11-28T22:08:57.839Z,97812.35
2018-11-28T22:11:27.705Z,97805.93
2018-11-28T22:13:57.752Z,97811.98
2018-11-28T22:16:28.626Z,97806.52
2018-11-28T22:18:59.223Z,97793.84
2018-11-28T22:21:29.098Z,97786.17
2018-11-28T22:23:59.256Z,97794.40
2018-11-28T22:26:29.299Z,97802.09
2018-11-28T22:28:59.539Z,97794.40
2018-11-28T22:31:31.040Z,97785.02
2018-11-28T22:34:01.464Z,97778.29
2018-11-28T22:36:31.690Z,97778.98
2018-11-28T22:39:01.726Z,97791.34
2018-11-28T22:41:32.292Z,97790.56
2018-11-28T22:44:03.816Z,97778.79
2018-11-28T22:46:33.893Z,97782.25
2018-11-28T22:49:06.649Z,97773.98
2018-11-28T22:51:39.422Z,97765.83
2018-11-28T22:54:09.325Z,97773.90
2018-11-28T22:56:39.508Z,97773.95
2018-11-28T22:59:09.594Z,97770.72
2018-11-28T23:02:54.909Z,97782.31
2018-11-28T23:10:42.838Z,97782.13
2018-11-28T23:13:16.559Z,97769.47
2018-11-28T23:15:45.967Z,97764.48
2018-11-28T23:18:15.363Z,97771.19
2018-11-28T23:20:45.407Z,97775.02
2018-11-28T23:23:14.019Z,97780.47
2018-11-28T23:25:43.318Z,97776.55
2018-11-28T23:28:12.653Z,97771.56
2018-11-28T23:30:42.112Z,97777.98
2018-11-28T23:33:16.004Z,97774.45
2018-11-28T23:35:40.998Z,97766.20
2018-11-28T23:38:10.286Z,97760.25
2018-11-28T23:40:39.638Z,97759.78
2018-11-28T23:43:08.933Z,97760.25
2018-11-28T23:45:38.237Z,97747.88
2018-11-28T23:48:07.516Z,97748.16
2018-11-28T23:50:36.814Z,97738.98
2018-11-28T23:53:06.162Z,97744.14
2018-11-28T23:55:35.538Z,97741.00
2018-11-28T23:58:04.843Z,97741.84
